Mc Connell Air Force Base
KIAB : now visible

Aeroporto :











RITROVATECI SU...

 
LOGIN :

Iscrizione | Disclaimer

   EN    FR    IT 

 









Sommario :    VFR   VFR Marginale   IFR   IFR Intensivo   IFR Molto Intensivo
Visibilità : 
Base nubi : 
>= 8 km
>= 3000ft
5 / 8 km
1000 / 3000 ft
1500m / 5 km
500 / 1000 ft
800 / 1500m
200 / 500 ft
< 800m
< 200 ft
Simboli :   Temporali  Nebbia  Neve Forte  Precipitazioni Forti  Vento > 20 kt






- Altitudine del aeroporto : 1371 ft
- Codice IATA : IAB


KIAB - Mc Connell Air Force Base

ULTIMO METAR :
  • 191256Z AUTO 29011KT 10SM OVC009 12/09 A2976 RMK AO2 SLP076 T01170093 $

METARs OBSOLETI :
  • 191219Z AUTO 29011KT 10SM OVC010 12/09 A2975 RMK AO2 SLP072 $
  • 191156Z AUTO 26010KT 10SM BKN011 13/10 A2974 RMK AO2 SLP068 60004 70004 T01250099 10156 20121 52016 $
  • 191056Z AUTO 22006KT 10SM SCT075 BKN140 12/10 A2972 RMK AO2 SLP060 T01240096 $

TAF TAF KIAB
Valido dal 19 a 12 ore il 20 a 18 ore UTC


191200Z 1912/2018 30010KT 9999 BKN015 QNH2971INS
BECMG 1914/1915 35012G18KT 9999 FEW140 QNH2976INS
BECMG 1923/1924 VRB06KT 9999 SKC QNH2977INS
BECMG 2014/2015 16010G15KT 9999 SKC QNH2976INS
BECMG 2017/2018 17015G25KT 9999 SKC QNH2972INS TX20/1921Z TN10/2012Z



MetMap, La meteo Aeronautica in un colpo d'occhio ! - Copyright ORBIFLY Dicembre 2007 - Disclaimer

ORBIFLY MET'MAP TEAM :

Programmazione e sviluppo : Alexandra Zaïnal
Concezione e sviluppo : Baudouin d'Aumeries
Co-Programmazione e sviluppo : Marc-Olivier Méhu
Supporto tecnico e logistico : Manuel Goepfert
Aiuto per la traduzione : Arnaldo La Scala

Contatto : metmap@orbifly.com




FONTI E CREDITI :

   NOAA       Earth
Advisory